sensor_id;sensor_type;location;lat;lon;timestamp;pressure;altitude;pressure_sealevel;temperature;humidity
23677;BME280;31493;49.058;12.190;2023-02-08T00:00:54;98047.03;;;-5.02;75.44
23677;BME280;31493;49.058;12.190;2023-02-08T00:03:21;98041.50;;;-5.21;77.29
23677;BME280;31493;49.058;12.190;2023-02-08T00:05:50;98046.63;;;-5.18;75.26
23677;BME280;31493;49.058;12.190;2023-02-08T00:08:17;98042.00;;;-5.01;74.58
23677;BME280;31493;49.058;12.190;2023-02-08T00:10:44;98048.44;;;-5.12;74.84
23677;BME280;31493;49.058;12.190;2023-02-08T00:13:11;98053.00;;;-5.32;75.10
23677;BME280;31493;49.058;12.190;2023-02-08T00:15:40;98044.84;;;-5.22;75.39
23677;BME280;31493;49.058;12.190;2023-02-08T00:18:07;98040.72;;;-5.18;74.25
23677;BME280;31493;49.058;12.190;2023-02-08T00:20:37;98036.66;;;-5.11;76.53
23677;BME280;31493;49.058;12.190;2023-02-08T00:23:05;98054.94;;;-5.53;77.32
23677;BME280;31493;49.058;12.190;2023-02-08T00:25:33;98051.81;;;-5.45;76.23
23677;BME280;31493;49.058;12.190;2023-02-08T00:28:00;98043.84;;;-5.60;77.32
23677;BME280;31493;49.058;12.190;2023-02-08T00:30:27;98045.88;;;-5.47;77.79
23677;BME280;31493;49.058;12.190;2023-02-08T00:32:54;98046.50;;;-5.55;78.29
23677;BME280;31493;49.058;12.190;2023-02-08T00:35:21;98048.22;;;-5.53;77.90
23677;BME280;31493;49.058;12.190;2023-02-08T00:37:48;98043.00;;;-5.59;79.00
23677;BME280;31493;49.058;12.190;2023-02-08T00:40:17;98040.19;;;-5.39;78.01
23677;BME280;31493;49.058;12.190;2023-02-08T00:42:44;98040.56;;;-5.57;78.64
23677;BME280;31493;49.058;12.190;2023-02-08T00:45:11;98035.34;;;-5.63;78.56
23677;BME280;31493;49.058;12.190;2023-02-08T00:47:38;98027.03;;;-5.59;78.55
23677;BME280;31493;49.058;12.190;2023-02-08T00:50:06;98032.44;;;-5.46;78.04
23677;BME280;31493;49.058;12.190;2023-02-08T00:52:33;98036.66;;;-5.46;78.71
23677;BME280;31493;49.058;12.190;2023-02-08T00:55:00;98023.81;;;-5.54;78.43
23677;BME280;31493;49.058;12.190;2023-02-08T00:57:28;98033.31;;;-5.45;77.54
23677;BME280;31493;49.058;12.190;2023-02-08T00:59:57;98035.69;;;-5.50;77.99
23677;BME280;31493;49.058;12.190;2023-02-08T01:02:24;98032.44;;;-5.46;76.96
23677;BME280;31493;49.058;12.190;2023-02-08T01:04:51;98040.25;;;-5.36;75.49
23677;BME280;31493;49.058;12.190;2023-02-08T01:07:18;98044.78;;;-5.23;74.88
23677;BME280;31493;49.058;12.190;2023-02-08T01:09:45;98044.72;;;-5.26;73.94
23677;BME280;31493;49.058;12.190;2023-02-08T01:12:12;98041.41;;;-5.24;72.44
23677;BME280;31493;49.058;12.190;2023-02-08T01:14:41;98044.94;;;-5.17;72.56
23677;BME280;31493;49.058;12.190;2023-02-08T01:17:08;98050.00;;;-5.17;72.92
23677;BME280;31493;49.058;12.190;2023-02-08T01:19:35;98057.75;;;-5.09;71.89
23677;BME280;31493;49.058;12.190;2023-02-08T01:22:02;98045.34;;;-5.02;71.78
23677;BME280;31493;49.058;12.190;2023-02-08T01:24:29;98042.44;;;-5.16;72.03
23677;BME280;31493;49.058;12.190;2023-02-08T01:26:56;98050.59;;;-5.27;72.06
23677;BME280;31493;49.058;12.190;2023-02-08T01:29:24;98045.47;;;-5.62;73.62
23677;BME280;31493;49.058;12.190;2023-02-08T01:31:52;98039.72;;;-5.58;74.39
23677;BME280;31493;49.058;12.190;2023-02-08T01:34:19;98036.66;;;-5.46;74.58
23677;BME280;31493;49.058;12.190;2023-02-08T01:36:47;98037.53;;;-5.76;75.63
23677;BME280;31493;49.058;12.190;2023-02-08T01:39:14;98045.63;;;-5.56;76.12
23677;BME280;31493;49.058;12.190;2023-02-08T01:41:42;98040.47;;;-5.60;75.75
23677;BME280;31493;49.058;12.190;2023-02-08T01:47:17;98039.13;;;-5.15;72.71
23677;BME280;31493;49.058;12.190;2023-02-08T01:49:44;98033.25;;;-5.14;72.73
23677;BME280;31493;49.058;12.190;2023-02-08T01:52:13;98029.88;;;-5.47;72.54
23677;BME280;31493;49.058;12.190;2023-02-08T01:54:45;98047.47;;;-5.82;75.41
23677;BME280;31493;49.058;12.190;2023-02-08T01:57:13;98050.16;;;-6.07;75.87
23677;BME280;31493;49.058;12.190;2023-02-08T01:59:43;98039.25;;;-6.35;77.72
23677;BME280;31493;49.058;12.190;2023-02-08T02:02:15;98043.84;;;-6.50;78.66
23677;BME280;31493;49.058;12.190;2023-02-08T02:04:45;98047.72;;;-6.60;79.58
23677;BME280;31493;49.058;12.190;2023-02-08T02:07:13;98030.75;;;-6.65;80.10
23677;BME280;31493;49.058;12.190;2023-02-08T02:09:44;98045.91;;;-6.64;81.37
23677;BME280;31493;49.058;12.190;2023-02-08T02:12:13;98041.50;;;-6.71;81.57
23677;BME280;31493;49.058;12.190;2023-02-08T02:14:41;98034.06;;;-6.39;80.28
23677;BME280;31493;49.058;12.190;2023-02-08T02:17:09;98030.22;;;-6.27;79.02
23677;BME280;31493;49.058;12.190;2023-02-08T02:19:46;98030.91;;;-6.32;78.76
23677;BME280;31493;49.058;12.190;2023-02-08T02:22:44;98021.34;;;-6.14;77.79
23677;BME280;31493;49.058;12.190;2023-02-08T02:25:36;98021.00;;;-5.96;76.80
23677;BME280;31493;49.058;12.190;2023-02-08T02:28:27;98018.47;;;-5.98;76.81
23677;BME280;31493;49.058;12.190;2023-02-08T02:31:49;98014.06;;;-6.05;77.65
23677;BME280;31493;49.058;12.190;2023-02-08T02:34:22;98008.09;;;-5.77;81.12
23677;BME280;31493;49.058;12.190;2023-02-08T02:36:58;98009.88;;;-5.71;76.87
23677;BME280;31493;49.058;12.190;2023-02-08T02:39:34;98003.47;;;-5.60;75.54
23677;BME280;31493;49.058;12.190;2023-02-08T02:42:10;98003.44;;;-5.61;76.34
23677;BME280;31493;49.058;12.190;2023-02-08T02:45:05;97999.09;;;-5.65;75.72
23677;BME280;31493;49.058;12.190;2023-02-08T02:47:38;98002.53;;;-5.63;75.42
23677;BME280;31493;49.058;12.190;2023-02-08T02:50:11;98003.47;;;-5.60;74.66
23677;BME280;31493;49.058;12.190;2023-02-08T02:52:45;98011.25;;;-5.52;75.09
23677;BME280;31493;49.058;12.190;2023-02-08T02:55:16;98005.41;;;-5.50;74.83
23677;BME280;31493;49.058;12.190;2023-02-08T02:57:45;97996.19;;;-5.81;74.97
23677;BME280;31493;49.058;12.190;2023-02-08T03:00:20;98020.19;;;-6.54;77.33
23677;BME280;31493;49.058;12.190;2023-02-08T03:02:49;98024.34;;;-6.56;79.10
23677;BME280;31493;49.058;12.190;2023-02-08T03:05:17;98019.13;;;-6.62;79.61
23677;BME280;31493;49.058;12.190;2023-02-08T03:11:02;98021.72;;;-6.59;79.34
23677;BME280;31493;49.058;12.190;2023-02-08T03:13:47;98028.28;;;-6.64;79.31
23677;BME280;31493;49.058;12.190;2023-02-08T03:16:25;98032.38;;;-6.67;79.99
23677;BME280;31493;49.058;12.190;2023-02-08T03:19:05;98025.56;;;-6.70;80.11
23677;BME280;31493;49.058;12.190;2023-02-08T03:21:39;98040.84;;;-6.65;80.03
23677;BME280;31493;49.058;12.190;2023-02-08T03:24:19;98038.47;;;-6.61;80.64
23677;BME280;31493;49.058;12.190;2023-02-08T03:26:53;98035.16;;;-6.58;79.10
23677;BME280;31493;49.058;12.190;2023-02-08T03:29:29;98023.72;;;-6.48;78.83
23677;BME280;31493;49.058;12.190;2023-02-08T03:32:03;98027.53;;;-6.33;78.20
23677;BME280;31493;49.058;12.190;2023-02-08T03:34:40;98022.28;;;-6.40;77.84
23677;BME280;31493;49.058;12.190;2023-02-08T03:37:13;98021.28;;;-6.45;77.64
23677;BME280;31493;49.058;12.190;2023-02-08T03:39:42;98027.22;;;-6.43;77.98
23677;BME280;31493;49.058;12.190;2023-02-08T03:42:14;98018.91;;;-6.41;76.51
23677;BME280;31493;49.058;12.190;2023-02-08T03:44:47;98025.19;;;-6.55;77.43
23677;BME280;31493;49.058;12.190;2023-02-08T03:47:19;98022.66;;;-6.57;77.41
23677;BME280;31493;49.058;12.190;2023-02-08T03:49:50;98026.94;;;-6.53;76.79
23677;BME280;31493;49.058;12.190;2023-02-08T03:52:20;98022.75;;;-6.52;76.80
23677;BME280;31493;49.058;12.190;2023-02-08T03:54:50;98043.31;;;-6.67;76.31
23677;BME280;31493;49.058;12.190;2023-02-08T03:57:20;98039.41;;;-6.84;77.27
23677;BME280;31493;49.058;12.190;2023-02-08T03:59:53;98046.38;;;-7.03;78.89
23677;BME280;31493;49.058;12.190;2023-02-08T04:02:24;98032.44;;;-7.18;80.02
23677;BME280;31493;49.058;12.190;2023-02-08T04:04:54;98033.34;;;-7.16;81.18
23677;BME280;31493;49.058;12.190;2023-02-08T04:07:22;98040.88;;;-7.18;81.99
23677;BME280;31493;49.058;12.190;2023-02-08T04:09:49;98025.38;;;-7.30;82.80
23677;BME280;31493;49.058;12.190;2023-02-08T04:12:16;98032.38;;;-7.45;83.55
23677;BME280;31493;49.058;12.190;2023-02-08T04:14:43;98034.69;;;-7.51;84.76
23677;BME280;31493;49.058;12.190;2023-02-08T04:17:10;98034.53;;;-7.56;85.29
23677;BME280;31493;49.058;12.190;2023-02-08T04:19:37;98026.72;;;-7.64;85.31
23677;BME280;31493;49.058;12.190;2023-02-08T04:22:06;98034.03;;;-7.71;85.42
23677;BME280;31493;49.058;12.190;2023-02-08T04:24:33;98032.19;;;-7.75;85.84
23677;BME280;31493;49.058;12.190;2023-02-08T04:27:00;98019.44;;;-7.56;85.61
23677;BME280;31493;49.058;12.190;2023-02-08T04:29:27;98005.84;;;-7.61;84.92
23677;BME280;31493;49.058;12.190;2023-02-08T04:31:54;98028.56;;;-7.34;84.68
23677;BME280;31493;49.058;12.190;2023-02-08T04:34:21;98015.41;;;-7.25;81.96
23677;BME280;31493;49.058;12.190;2023-02-08T04:36:48;98015.78;;;-7.40;80.69
23677;BME280;31493;49.058;12.190;2023-02-08T04:39:16;98015.63;;;-7.19;79.74
23677;BME280;31493;49.058;12.190;2023-02-08T04:41:43;98011.78;;;-7.08;78.70
23677;BME280;31493;49.058;12.190;2023-02-08T04:44:10;98002.88;;;-6.98;77.56
23677;BME280;31493;49.058;12.190;2023-02-08T04:46:37;98007.38;;;-6.88;76.71
23677;BME280;31493;49.058;12.190;2023-02-08T04:49:04;98001.63;;;-6.84;76.17
23677;BME280;31493;49.058;12.190;2023-02-08T04:51:31;98000.59;;;-6.91;76.41
23677;BME280;31493;49.058;12.190;2023-02-08T04:53:58;98000.66;;;-6.88;76.96
23677;BME280;31493;49.058;12.190;2023-02-08T04:56:26;98008.19;;;-6.89;76.32
23677;BME280;31493;49.058;12.190;2023-02-08T04:58:53;98014.75;;;-6.94;76.49
23677;BME280;31493;49.058;12.190;2023-02-08T05:01:20;98013.81;;;-6.98;78.15
23677;BME280;31493;49.058;12.190;2023-02-08T05:03:48;98008.63;;;-7.03;77.39
23677;BME280;31493;49.058;12.190;2023-02-08T05:06:15;98004.06;;;-6.87;77.47
23677;BME280;31493;49.058;12.190;2023-02-08T05:08:42;98011.94;;;-6.77;76.32
23677;BME280;31493;49.058;12.190;2023-02-08T05:11:09;98004.94;;;-6.87;77.33
23677;BME280;31493;49.058;12.190;2023-02-08T05:13:37;98014.19;;;-6.86;76.67
23677;BME280;31493;49.058;12.190;2023-02-08T05:16:04;98014.34;;;-6.81;76.10
23677;BME280;31493;49.058;12.190;2023-02-08T05:18:31;98016.97;;;-7.04;76.82
23677;BME280;31493;49.058;12.190;2023-02-08T05:21:00;98013.34;;;-7.37;77.97
23677;BME280;31493;49.058;12.190;2023-02-08T05:23:28;98016.63;;;-7.40;78.52
23677;BME280;31493;49.058;12.190;2023-02-08T05:25:56;98023.59;;;-7.33;79.14
23677;BME280;31493;49.058;12.190;2023-02-08T05:28:23;98005.75;;;-7.39;79.69
23677;BME280;31493;49.058;12.190;2023-02-08T05:30:52;98017.69;;;-7.33;79.80
23677;BME280;31493;49.058;12.190;2023-02-08T05:33:19;98010.91;;;-7.36;78.91
23677;BME280;31493;49.058;12.190;2023-02-08T05:35:46;98028.63;;;-7.33;79.94
23677;BME280;31493;49.058;12.190;2023-02-08T05:38:13;98014.41;;;-7.31;80.46
23677;BME280;31493;49.058;12.190;2023-02-08T05:40:40;98021.09;;;-7.31;80.87
23677;BME280;31493;49.058;12.190;2023-02-08T05:43:07;98020.06;;;-7.38;80.78
23677;BME280;31493;49.058;12.190;2023-02-08T05:45:34;98030.97;;;-7.37;81.95
23677;BME280;31493;49.058;12.190;2023-02-08T05:48:02;98018.91;;;-7.47;82.01
23677;BME280;31493;49.058;12.190;2023-02-08T05:50:29;98025.72;;;-7.43;81.73
23677;BME280;31493;49.058;12.190;2023-02-08T05:52:56;98024.44;;;-6.80;87.90
23677;BME280;31493;49.058;12.190;2023-02-08T05:55:24;98027.34;;;-7.45;82.58
23677;BME280;31493;49.058;12.190;2023-02-08T05:57:52;98029.28;;;-7.62;83.11
23677;BME280;31493;49.058;12.190;2023-02-08T06:00:20;98032.63;;;-7.63;83.56
23677;BME280;31493;49.058;12.190;2023-02-08T06:02:47;98031.56;;;-7.70;83.86
23677;BME280;31493;49.058;12.190;2023-02-08T06:05:15;98039.06;;;-7.71;83.82
23677;BME280;31493;49.058;12.190;2023-02-08T06:07:42;98046.56;;;-7.73;83.88
23677;BME280;31493;49.058;12.190;2023-02-08T06:10:09;98033.91;;;-7.74;84.01
23677;BME280;31493;49.058;12.190;2023-02-08T06:12:36;98047.13;;;-7.80;84.21
23677;BME280;31493;49.058;12.190;2023-02-08T06:15:04;98039.84;;;-7.72;83.95
23677;BME280;31493;49.058;12.190;2023-02-08T06:17:31;98044.13;;;-7.70;83.00
23677;BME280;31493;49.058;12.190;2023-02-08T06:19:58;98041.06;;;-7.61;82.44
23677;BME280;31493;49.058;12.190;2023-02-08T06:22:26;98054.13;;;-7.71;82.86
23677;BME280;31493;49.058;12.190;2023-02-08T06:24:53;98059.22;;;-7.70;83.48
23677;BME280;31493;49.058;12.190;2023-02-08T06:27:20;98060.66;;;-7.76;83.16
23677;BME280;31493;49.058;12.190;2023-02-08T06:29:47;98052.91;;;-7.82;83.25
23677;BME280;31493;49.058;12.190;2023-02-08T06:32:14;98051.69;;;-7.92;83.43
23677;BME280;31493;49.058;12.190;2023-02-08T06:34:41;98047.03;;;-7.83;83.72
23677;BME280;31493;49.058;12.190;2023-02-08T06:37:08;98056.75;;;-7.68;82.98
23677;BME280;31493;49.058;12.190;2023-02-08T06:39:37;98049.31;;;-7.65;82.97
23677;BME280;31493;49.058;12.190;2023-02-08T06:42:04;98058.53;;;-7.66;82.50
23677;BME280;31493;49.058;12.190;2023-02-08T06:44:31;98054.94;;;-7.72;82.67
23677;BME280;31493;49.058;12.190;2023-02-08T06:46:58;98052.34;;;-7.74;82.47
23677;BME280;31493;49.058;12.190;2023-02-08T06:49:25;98053.22;;;-7.73;82.96
23677;BME280;31493;49.058;12.190;2023-02-08T06:51:55;98058.91;;;-7.79;83.13
23677;BME280;31493;49.058;12.190;2023-02-08T06:54:23;98048.84;;;-7.79;83.68
23677;BME280;31493;49.058;12.190;2023-02-08T06:56:51;98050.13;;;-7.90;83.86
23677;BME280;31493;49.058;12.190;2023-02-08T06:59:18;98061.50;;;-8.00;84.69
23677;BME280;31493;49.058;12.190;2023-02-08T07:01:45;98058.06;;;-8.02;84.98
23677;BME280;31493;49.058;12.190;2023-02-08T07:04:13;98059.34;;;-8.13;85.31
23677;BME280;31493;49.058;12.190;2023-02-08T07:06:40;98058.19;;;-7.99;85.64
23677;BME280;31493;49.058;12.190;2023-02-08T07:09:07;98055.56;;;-8.02;86.08
23677;BME280;31493;49.058;12.190;2023-02-08T07:11:34;98054.97;;;-7.95;86.85
23677;BME280;31493;49.058;12.190;2023-02-08T07:14:02;98067.59;;;-7.93;87.29
23677;BME280;31493;49.058;12.190;2023-02-08T07:16:29;98051.69;;;-7.92;87.34
23677;BME280;31493;49.058;12.190;2023-02-08T07:18:56;98047.69;;;-7.87;87.88
23677;BME280;31493;49.058;12.190;2023-02-08T07:21:23;98056.84;;;-7.89;88.42
23677;BME280;31493;49.058;12.190;2023-02-08T07:23:50;98050.34;;;-7.84;88.00
23677;BME280;31493;49.058;12.190;2023-02-08T07:26:17;98054.56;;;-7.83;88.17
23677;BME280;31493;49.058;12.190;2023-02-08T07:28:44;98036.06;;;-7.85;87.70
23677;BME280;31493;49.058;12.190;2023-02-08T07:31:14;98053.81;;;-7.80;87.71
23677;BME280;31493;49.058;12.190;2023-02-08T07:33:42;98053.41;;;-7.67;87.92
23677;BME280;31493;49.058;12.190;2023-02-08T07:36:10;98041.66;;;-7.68;87.38
23677;BME280;31493;49.058;12.190;2023-02-08T07:38:37;98034.28;;;-7.64;87.04
23677;BME280;31493;49.058;12.190;2023-02-08T07:41:06;98035.94;;;-7.64;87.19
23677;BME280;31493;49.058;12.190;2023-02-08T07:43:34;98037.16;;;-7.53;86.73
23677;BME280;31493;49.058;12.190;2023-02-08T07:46:05;98039.94;;;-7.45;86.67
23677;BME280;31493;49.058;12.190;2023-02-08T07:48:33;98046.91;;;-7.37;86.26
23677;BME280;31493;49.058;12.190;2023-02-08T07:51:00;98045.59;;;-7.27;86.13
23677;BME280;31493;49.058;12.190;2023-02-08T07:53:28;98043.88;;;-7.28;86.40
23677;BME280;31493;49.058;12.190;2023-02-08T07:55:56;98046.59;;;-7.22;86.17
23677;BME280;31493;49.058;12.190;2023-02-08T07:58:23;98052.53;;;-7.20;85.85
23677;BME280;31493;49.058;12.190;2023-02-08T08:00:50;98050.22;;;-7.14;85.76
23677;BME280;31493;49.058;12.190;2023-02-08T08:03:18;98042.81;;;-7.09;85.85
23677;BME280;31493;49.058;12.190;2023-02-08T08:05:47;98037.16;;;-7.02;85.59
23677;BME280;31493;49.058;12.190;2023-02-08T08:08:16;98056.59;;;-6.98;85.47
23677;BME280;31493;49.058;12.190;2023-02-08T08:10:43;98049.22;;;-6.93;85.40
23677;BME280;31493;49.058;12.190;2023-02-08T08:13:11;98042.91;;;-6.81;85.10
23677;BME280;31493;49.058;12.190;2023-02-08T08:15:38;98050.69;;;-6.73;84.68
23677;BME280;31493;49.058;12.190;2023-02-08T08:18:06;98050.03;;;-6.67;84.68
23677;BME280;31493;49.058;12.190;2023-02-08T08:20:33;98058.59;;;-6.62;84.44
23677;BME280;31493;49.058;12.190;2023-02-08T08:23:02;98063.03;;;-6.54;84.81
23677;BME280;31493;49.058;12.190;2023-02-08T08:25:29;98058.25;;;-6.44;84.34
23677;BME280;31493;49.058;12.190;2023-02-08T08:27:56;98063.44;;;-6.40;84.18
23677;BME280;31493;49.058;12.190;2023-02-08T08:30:23;98060.28;;;-6.33;83.71
23677;BME280;31493;49.058;12.190;2023-02-08T08:32:50;98057.25;;;-6.23;83.52
23677;BME280;31493;49.058;12.190;2023-02-08T08:35:18;98058.28;;;-6.16;83.83
23677;BME280;31493;49.058;12.190;2023-02-08T08:37:45;98037.19;;;-6.19;83.42
23677;BME280;31493;49.058;12.190;2023-02-08T08:40:14;98049.38;;;-6.05;84.03
23677;BME280;31493;49.058;12.190;2023-02-08T08:42:41;98047.88;;;-5.98;83.50
23677;BME280;31493;49.058;12.190;2023-02-08T08:45:09;98040.94;;;-6.05;83.84
23677;BME280;31493;49.058;12.190;2023-02-08T08:47:36;98040.78;;;-5.80;83.81
23677;BME280;31493;49.058;12.190;2023-02-08T08:50:03;98042.00;;;-5.97;83.49
23677;BME280;31493;49.058;12.190;2023-02-08T08:52:30;98041.56;;;-5.82;83.56
23677;BME280;31493;49.058;12.190;2023-02-08T08:54:57;98032.56;;;-5.73;83.40
23677;BME280;31493;49.058;12.190;2023-02-08T08:57:26;98030.88;;;-5.72;82.69
23677;BME280;31493;49.058;12.190;2023-02-08T08:59:53;98026.47;;;-5.49;82.77
23677;BME280;31493;49.058;12.190;2023-02-08T09:02:20;98036.38;;;-5.55;82.03
23677;BME280;31493;49.058;12.190;2023-02-08T09:04:47;98029.09;;;-5.45;82.04
23677;BME280;31493;49.058;12.190;2023-02-08T09:07:14;98030.03;;;-5.41;82.38
23677;BME280;31493;49.058;12.190;2023-02-08T09:09:41;98022.81;;;-5.27;80.99
23677;BME280;31493;49.058;12.190;2023-02-08T09:12:12;98027.03;;;-5.28;80.80
23677;BME280;31493;49.058;12.190;2023-02-08T09:14:41;98031.44;;;-5.19;81.14
23677;BME280;31493;49.058;12.190;2023-02-08T09:17:09;98024.31;;;-5.01;80.53
23677;BME280;31493;49.058;12.190;2023-02-08T09:19:36;98022.63;;;-5.02;79.92
23677;BME280;31493;49.058;12.190;2023-02-08T09:22:05;98023.59;;;-4.95;79.86
23677;BME280;31493;49.058;12.190;2023-02-08T09:24:32;98033.97;;;-4.84;79.65
23677;BME280;31493;49.058;12.190;2023-02-08T09:26:59;98027.31;;;-4.81;78.10
23677;BME280;31493;49.058;12.190;2023-02-08T09:29:26;98025.59;;;-4.82;79.26
23677;BME280;31493;49.058;12.190;2023-02-08T09:31:56;98035.06;;;-4.73;78.49
23677;BME280;31493;49.058;12.190;2023-02-08T09:34:23;98034.28;;;-4.71;77.78
23677;BME280;31493;49.058;12.190;2023-02-08T09:36:50;98021.16;;;-4.54;78.26
23677;BME280;31493;49.058;12.190;2023-02-08T09:39:19;98025.63;;;-4.44;78.06
23677;BME280;31493;49.058;12.190;2023-02-08T09:42:01;98025.56;;;-4.47;77.13
23677;BME280;31493;49.058;12.190;2023-02-08T09:44:40;98034.91;;;-4.43;76.03
23677;BME280;31493;49.058;12.190;2023-02-08T09:47:15;98034.31;;;-4.32;75.66
23677;BME280;31493;49.058;12.190;2023-02-08T09:49:53;98035.13;;;-4.34;76.09
23677;BME280;31493;49.058;12.190;2023-02-08T09:52:25;98037.13;;;-4.18;75.00
23677;BME280;31493;49.058;12.190;2023-02-08T09:54:57;98026.84;;;-4.27;74.79
23677;BME280;31493;49.058;12.190;2023-02-08T09:57:28;98022.72;;;-4.23;74.49
23677;BME280;31493;49.058;12.190;2023-02-08T09:59:59;98030.59;;;-4.08;76.03
23677;BME280;31493;49.058;12.190;2023-02-08T10:02:31;98018.38;;;-3.87;74.85
23677;BME280;31493;49.058;12.190;2023-02-08T10:05:01;98016.19;;;-3.70;74.42
23677;BME280;31493;49.058;12.190;2023-02-08T10:07:30;98031.25;;;-3.76;73.71
23677;BME280;31493;49.058;12.190;2023-02-08T10:09:59;98016.28;;;-3.65;73.47
23677;BME280;31493;49.058;12.190;2023-02-08T10:12:30;98034.91;;;-3.62;73.29
23677;BME280;31493;49.058;12.190;2023-02-08T10:15:11;98038.09;;;-3.72;72.84
23677;BME280;31493;49.058;12.190;2023-02-08T10:18:00;98023.34;;;-3.49;72.10
23677;BME280;31493;49.058;12.190;2023-02-08T10:20:41;98039.91;;;-3.65;72.10
23677;BME280;31493;49.058;12.190;2023-02-08T10:23:21;98036.81;;;-3.02;73.14
23677;BME280;31493;49.058;12.190;2023-02-08T10:26:05;98033.13;;;-3.20;72.97
23677;BME280;31493;49.058;12.190;2023-02-08T10:31:49;98021.03;;;-2.85;77.03
23677;BME280;31493;49.058;12.190;2023-02-08T10:34:36;98012.22;;;-2.54;76.76
23677;BME280;31493;49.058;12.190;2023-02-08T10:37:12;97986.66;;;-2.06;74.98
23677;BME280;31493;49.058;12.190;2023-02-08T10:39:40;98004.94;;;-2.30;74.13
23677;BME280;31493;49.058;12.190;2023-02-08T10:42:12;97996.28;;;-3.02;75.51
23677;BME280;31493;49.058;12.190;2023-02-08T10:44:49;97999.91;;;-2.86;76.29
23677;BME280;31493;49.058;12.190;2023-02-08T10:47:19;98001.97;;;-2.60;77.27
23677;BME280;31493;49.058;12.190;2023-02-08T10:49:58;98000.56;;;-2.98;77.40
23677;BME280;31493;49.058;12.190;2023-02-08T10:52:28;97980.03;;;-1.92;79.19
23677;BME280;31493;49.058;12.190;2023-02-08T10:54:56;97979.28;;;-1.84;75.03
23677;BME280;31493;49.058;12.190;2023-02-08T10:57:25;97977.72;;;-2.41;73.84
23677;BME280;31493;49.058;12.190;2023-02-08T10:59:57;97986.56;;;-2.74;74.30
23677;BME280;31493;49.058;12.190;2023-02-08T11:02:27;97990.44;;;-2.96;73.30
23677;BME280;31493;49.058;12.190;2023-02-08T11:05:02;97974.56;;;-2.87;73.43
23677;BME280;31493;49.058;12.190;2023-02-08T11:07:30;97970.38;;;-2.84;74.04
23677;BME280;31493;49.058;12.190;2023-02-08T11:10:13;97982.25;;;-2.81;72.08
23677;BME280;31493;49.058;12.190;2023-02-08T11:12:42;97962.34;;;-1.87;75.28
23677;BME280;31493;49.058;12.190;2023-02-08T11:15:24;97946.94;;;-2.02;75.35
23677;BME280;31493;49.058;12.190;2023-02-08T11:17:54;97948.06;;;-2.46;72.01
23677;BME280;31493;49.058;12.190;2023-02-08T11:20:28;97949.69;;;-2.52;71.90
23677;BME280;31493;49.058;12.190;2023-02-08T11:22:57;97940.38;;;-2.53;70.38
23677;BME280;31493;49.058;12.190;2023-02-08T11:25:37;97936.59;;;-2.19;71.25
23677;BME280;31493;49.058;12.190;2023-02-08T11:28:21;97940.34;;;-2.55;69.72
23677;BME280;31493;49.058;12.190;2023-02-08T11:30:57;97933.50;;;-2.62;70.57
23677;BME280;31493;49.058;12.190;2023-02-08T11:33:25;97943.84;;;-2.47;70.50
23677;BME280;31493;49.058;12.190;2023-02-08T11:36:01;97941.59;;;-2.24;68.96
23677;BME280;31493;49.058;12.190;2023-02-08T11:38:30;97931.50;;;-2.19;68.37
23677;BME280;31493;49.058;12.190;2023-02-08T11:41:01;97938.50;;;-2.01;67.27
23677;BME280;31493;49.058;12.190;2023-02-08T11:43:30;97932.44;;;-2.12;66.31
23677;BME280;31493;49.058;12.190;2023-02-08T11:46:00;97928.06;;;-2.26;65.55
23677;BME280;31493;49.058;12.190;2023-02-08T11:48:38;97915.44;;;-2.20;65.60
23677;BME280;31493;49.058;12.190;2023-02-08T11:51:08;97917.91;;;-2.26;64.77
23677;BME280;31493;49.058;12.190;2023-02-08T11:53:39;97923.91;;;-2.21;65.08
23677;BME280;31493;49.058;12.190;2023-02-08T11:56:15;97920.69;;;-2.04;64.68
23677;BME280;31493;49.058;12.190;2023-02-08T11:58:55;97909.19;;;-1.69;65.04
23677;BME280;31493;49.058;12.190;2023-02-08T12:01:26;97911.53;;;-1.90;63.85
23677;BME280;31493;49.058;12.190;2023-02-08T12:03:56;97907.31;;;-1.90;63.51
23677;BME280;31493;49.058;12.190;2023-02-08T12:06:44;97913.44;;;-1.69;64.14
23677;BME280;31493;49.058;12.190;2023-02-08T12:09:26;97905.13;;;-1.50;64.82
23677;BME280;31493;49.058;12.190;2023-02-08T12:12:03;97904.28;;;-1.53;63.28
23677;BME280;31493;49.058;12.190;2023-02-08T12:14:45;97877.34;;;-1.30;63.32
23677;BME280;31493;49.058;12.190;2023-02-08T12:20:30;97873.13;;;-1.29;62.65
23677;BME280;31493;49.058;12.190;2023-02-08T12:23:10;97874.13;;;-1.09;63.48
23677;BME280;31493;49.058;12.190;2023-02-08T12:25:45;97867.34;;;-1.10;62.83
23677;BME280;31493;49.058;12.190;2023-02-08T12:28:19;97857.28;;;-0.90;63.15
23677;BME280;31493;49.058;12.190;2023-02-08T12:30:57;97865.31;;;0.18;66.22
23677;BME280;31493;49.058;12.190;2023-02-08T12:33:36;97868.38;;;-0.79;68.68
23677;BME280;31493;49.058;12.190;2023-02-08T12:39:24;97844.09;;;0.85;65.76
23677;BME280;31493;49.058;12.190;2023-02-08T12:42:21;97843.25;;;0.82;64.93
23677;BME280;31493;49.058;12.190;2023-02-08T12:45:07;97818.38;;;1.60;61.89
23677;BME280;31493;49.058;12.190;2023-02-08T12:47:50;97825.25;;;1.40;60.15
23677;BME280;31493;49.058;12.190;2023-02-08T12:50:26;97808.09;;;1.71;61.62
23677;BME280;31493;49.058;12.190;2023-02-08T12:53:02;97814.91;;;1.66;59.03
23677;BME280;31493;49.058;12.190;2023-02-08T12:55:36;97817.66;;;1.15;63.11
23677;BME280;31493;49.058;12.190;2023-02-08T12:58:20;97804.81;;;1.44;63.15
23677;BME280;31493;49.058;12.190;2023-02-08T13:00:50;97827.09;;;0.00;63.65
23677;BME280;31493;49.058;12.190;2023-02-08T13:03:30;97815.25;;;0.43;65.74
23677;BME280;31493;49.058;12.190;2023-02-08T13:06:03;97816.94;;;0.52;64.36
23677;BME280;31493;49.058;12.190;2023-02-08T13:08:35;97804.94;;;1.11;61.64
23677;BME280;31493;49.058;12.190;2023-02-08T13:11:10;97800.75;;;0.87;61.74
23677;BME280;31493;49.058;12.190;2023-02-08T13:13:41;97811.84;;;0.35;64.58
23677;BME280;31493;49.058;12.190;2023-02-08T13:16:15;97802.47;;;0.05;65.45
23677;BME280;31493;49.058;12.190;2023-02-08T13:18:46;97814.34;;;-0.15;63.96
23677;BME280;31493;49.058;12.190;2023-02-08T13:21:19;97788.06;;;0.27;65.02
23677;BME280;31493;49.058;12.190;2023-02-08T13:23:49;97785.50;;;0.27;63.83